Time;durP1;ratioP1;P1;durP2;ratioP2;P2;SDS_P1;SDS_P2;PMS_P1;PMS_P2;Temp;Humidity;BMP_temperature;BMP_pressure;BME280_temperature;BME280_humidity;BME280_pressure;Samples;Min_cycle;Max_cycle;Signal;HPM_P1;HPM_P2
2023/08/31 00:01:09;;;;;;;0.20;0.20;;;;;;;10.24;100.00;100688.72;5116321;28;20046;-49
2023/08/31 00:03:35;;;;;;;0.17;0.17;;;;;;;10.21;100.00;100689.53;5116604;28;20546;-51
2023/08/31 00:06:07;;;;;;;0.20;0.20;;;;;;;10.16;100.00;100689.41;5116179;28;20030;-50
2023/08/31 00:08:34;;;;;;;0.20;0.20;;;;;;;10.16;100.00;100680.78;5116475;28;20023;-52
2023/08/31 00:11:00;;;;;;;0.20;0.20;;;;;;;10.15;100.00;100681.66;5116865;28;20031;-52
2023/08/31 00:13:26;;;;;;;0.20;0.20;;;;;;;10.14;100.00;100688.47;5115651;28;20027;-47
2023/08/31 00:15:55;;;;;;;0.20;0.20;;;;;;;10.12;100.00;100690.16;5116712;28;20028;-51
2023/08/31 00:18:20;;;;;;;0.10;0.10;;;;;;;10.12;100.00;100687.59;5116391;28;20027;-50
2023/08/31 00:20:46;;;;;;;0.20;0.20;;;;;;;10.05;100.00;100685.66;5115591;28;20138;-51
2023/08/31 00:23:11;;;;;;;0.10;0.10;;;;;;;10.08;100.00;100690.00;5116278;28;20023;-47
2023/08/31 00:25:37;;;;;;;0.20;0.20;;;;;;;10.08;100.00;100690.00;5116613;28;20031;-49
2023/08/31 00:28:04;;;;;;;0.20;0.20;;;;;;;10.03;100.00;100683.03;5115615;28;20055;-51
2023/08/31 00:30:31;;;;;;;0.20;0.20;;;;;;;10.03;100.00;100687.28;5116229;27;20024;-50
2023/08/31 00:32:59;;;;;;;0.20;0.20;;;;;;;10.03;100.00;100688.19;5116671;28;20028;-51
2023/08/31 00:35:26;;;;;;;0.20;0.20;;;;;;;10.02;100.00;100686.44;5115295;28;20104;-51
2023/08/31 00:37:51;;;;;;;0.20;0.20;;;;;;;10.00;100.00;100684.63;5116204;28;20478;-52
2023/08/31 00:40:16;;;;;;;0.20;0.20;;;;;;;9.96;100.00;100681.09;5116040;28;20066;-50
2023/08/31 00:42:42;;;;;;;0.20;0.20;;;;;;;9.97;100.00;100697.44;5113933;28;20023;-50
2023/08/31 00:45:08;;;;;;;0.20;0.20;;;;;;;9.98;100.00;100688.84;5116071;28;20071;-50
2023/08/31 00:47:33;;;;;;;0.20;0.20;;;;;;;9.93;100.00;100686.16;5115725;28;20483;-50
2023/08/31 00:49:59;;;;;;;0.20;0.20;;;;;;;9.92;100.00;100688.69;5115146;28;20028;-51
2023/08/31 00:52:25;;;;;;;0.20;0.20;;;;;;;9.92;100.00;100686.13;5115634;28;20030;-52
2023/08/31 00:54:52;;;;;;;0.20;0.20;;;;;;;9.89;100.00;100685.19;5115723;28;20043;-51
2023/08/31 00:57:18;;;;;;;0.10;0.10;;;;;;;9.89;100.00;100685.19;5114870;28;20375;-50
2023/08/31 00:59:43;;;;;;;0.20;0.20;;;;;;;9.89;100.00;100690.34;5115790;28;20016;-52
2023/08/31 01:02:20;;;;;;;0.20;0.20;;;;;;;9.88;100.00;100693.72;5115795;28;20031;-51
2023/08/31 01:05:02;;;;;;;0.20;0.20;;;;;;;9.84;100.00;100686.75;5115729;28;20028;-51
2023/08/31 01:07:39;;;;;;;0.20;0.20;;;;;;;9.83;100.00;100686.72;5115586;28;20028;-50
2023/08/31 01:10:31;;;;;;;0.20;0.20;;;;;;;9.85;100.00;100679.91;5115009;28;20041;-51
2023/08/31 01:13:03;;;;;;;0.20;0.20;;;;;;;9.80;100.00;100677.19;5115598;28;20024;-51
2023/08/31 01:15:31;;;;;;;0.15;0.15;;;;;;;9.80;100.00;100676.31;5115171;28;20024;-51
2023/08/31 01:17:58;;;;;;;0.20;0.20;;;;;;;9.74;100.00;100679.59;5114911;28;20041;-51
2023/08/31 01:20:33;;;;;;;0.17;0.17;;;;;;;9.77;100.00;100682.25;5115124;28;20030;-51
2023/08/31 01:23:10;;;;;;;0.20;0.20;;;;;;;9.75;100.00;100685.59;5115601;28;20069;-51
2023/08/31 01:25:36;;;;;;;0.20;0.20;;;;;;;9.74;100.00;100674.44;5114199;28;20023;-52
2023/08/31 01:28:03;;;;;;;0.20;0.20;;;;;;;9.73;100.00;100682.97;5115144;28;20033;-51
2023/08/31 01:30:32;;;;;;;0.20;0.20;;;;;;;9.72;100.00;100689.84;5113990;28;20439;-51
2023/08/31 01:32:57;;;;;;;0.15;0.15;;;;;;;9.69;100.00;100686.28;5115441;28;20107;-50
2023/08/31 01:35:24;;;;;;;0.13;0.13;;;;;;;9.62;100.00;100689.50;5115023;28;20400;-51
2023/08/31 01:37:51;;;;;;;0.20;0.20;;;;;;;9.62;100.00;100700.69;5114305;28;20027;-51
2023/08/31 01:40:19;;;;;;;0.20;0.20;;;;;;;9.65;100.00;100694.75;5114508;27;20194;-51
2023/08/31 01:42:46;;;;;;;0.10;0.10;;;;;;;9.63;100.00;100699.84;5115112;28;20034;-51
2023/08/31 01:45:16;;;;;;;0.20;0.20;;;;;;;9.64;100.00;100701.56;5113953;28;20028;-50
2023/08/31 01:47:42;;;;;;;0.20;0.20;;;;;;;9.65;100.00;100702.47;5114998;28;20073;-51
2023/08/31 01:50:08;;;;;;;0.20;0.20;;;;;;;9.63;100.00;100701.53;5114632;28;20015;-50
2023/08/31 01:52:33;;;;;;;0.20;0.20;;;;;;;9.66;100.00;100701.66;5113725;28;20105;-52
2023/08/31 01:54:59;;;;;;;0.20;0.20;;;;;;;9.67;100.00;100703.38;5114125;28;20422;-51
2023/08/31 01:57:24;;;;;;;0.20;0.20;;;;;;;9.72;100.00;100701.81;5114499;28;20034;-51
2023/08/31 01:59:49;;;;;;;0.20;0.20;;;;;;;9.75;100.00;100701.03;5113894;28;20016;-51
2023/08/31 02:02:15;;;;;;;0.20;0.20;;;;;;;9.79;100.00;100701.19;5114326;28;20051;-51
2023/08/31 02:04:40;;;;;;;0.20;0.20;;;;;;;9.82;100.00;100697.84;5114478;28;20051;-50
2023/08/31 02:07:05;;;;;;;0.20;0.20;;;;;;;9.85;100.00;100703.94;5113666;28;20031;-49
2023/08/31 02:09:31;;;;;;;0.20;0.20;;;;;;;9.86;100.00;100705.72;5114029;28;20638;-51
2023/08/31 02:11:56;;;;;;;0.20;0.20;;;;;;;9.92;100.00;100701.56;5114526;28;20024;-50
2023/08/31 02:14:22;;;;;;;0.20;0.20;;;;;;;9.94;100.00;100702.47;5113211;28;20020;-52
2023/08/31 02:16:47;;;;;;;0.20;0.20;;;;;;;9.95;100.00;100699.06;5114208;28;20467;-51
2023/08/31 02:19:13;;;;;;;0.10;0.10;;;;;;;9.97;100.00;100698.28;5114123;28;20045;-51
2023/08/31 02:21:38;;;;;;;0.20;0.20;;;;;;;10.03;100.00;100695.00;5113428;28;20035;-52
2023/08/31 02:24:04;;;;;;;0.10;0.10;;;;;;;10.05;100.00;100690.78;5114284;28;20030;-51
2023/08/31 02:26:29;;;;;;;0.20;0.20;;;;;;;10.06;100.00;100692.53;5113967;28;20022;-52
2023/08/31 02:28:55;;;;;;;0.17;0.17;;;;;;;10.09;100.00;100682.31;5113210;28;20020;-50
2023/08/31 02:31:20;;;;;;;0.13;0.13;;;;;;;10.10;100.00;100689.22;5113788;28;20020;-51
2023/08/31 02:33:49;;;;;;;0.20;0.20;;;;;;;10.16;100.00;100688.50;5113275;28;20102;-52
2023/08/31 02:36:15;;;;;;;0.20;0.20;;;;;;;10.19;100.00;100696.34;5113794;28;20016;-51
2023/08/31 02:38:40;;;;;;;0.10;0.10;;;;;;;10.22;100.00;100693.84;5113807;28;20026;-51
2023/08/31 02:41:05;;;;;;;0.20;0.20;;;;;;;10.26;100.00;100689.66;5112919;28;20459;-51
2023/08/31 02:43:31;;;;;;;0.20;0.20;;;;;;;10.26;100.00;100695.69;5113334;28;20019;-51
2023/08/31 02:46:01;;;;;;;0.10;0.10;;;;;;;10.25;100.00;100703.38;5113789;28;20107;-51
2023/08/31 02:48:27;;;;;;;0.20;0.20;;;;;;;10.21;100.00;100703.28;5112733;28;20106;-52
2023/08/31 02:50:53;;;;;;;0.20;0.20;;;;;;;10.20;100.00;100701.53;5113732;28;20114;-51
2023/08/31 02:53:19;;;;;;;0.20;0.20;;;;;;;10.18;100.00;100707.47;5113185;28;20024;-51
2023/08/31 02:55:44;;;;;;;0.15;0.15;;;;;;;10.19;100.00;100704.06;5112713;28;20092;-51
2023/08/31 02:58:09;;;;;;;0.20;0.20;;;;;;;10.16;100.00;100710.00;5113642;28;20411;-51
2023/08/31 03:00:35;;;;;;;0.32;0.20;;;;;;;10.12;100.00;100713.34;5113311;28;20178;-48
2023/08/31 03:03:00;;;;;;;0.10;0.10;;;;;;;10.07;100.00;100702.03;5112808;28;20169;-50
2023/08/31 03:05:25;;;;;;;0.20;0.20;;;;;;;10.03;100.00;100700.16;5112758;28;20036;-52
2023/08/31 03:07:51;;;;;;;0.20;0.20;;;;;;;9.97;100.00;100705.16;5113460;28;20027;-51
2023/08/31 03:10:16;;;;;;;0.20;0.20;;;;;;;9.93;100.00;100705.88;5112506;28;20024;-50
2023/08/31 03:12:41;;;;;;;0.20;0.20;;;;;;;9.88;100.00;100706.59;5113532;28;20477;-49
2023/08/31 03:15:07;;;;;;;0.20;0.20;;;;;;;9.83;100.00;100703.03;5113531;28;20032;-51
2023/08/31 03:17:33;;;;;;;0.20;0.20;;;;;;;9.81;100.00;100703.81;5112319;28;20527;-50
2023/08/31 03:19:58;;;;;;;0.20;0.20;;;;;;;9.76;100.00;100703.69;5113303;28;20089;-51
2023/08/31 03:22:23;;;;;;;0.20;0.20;;;;;;;9.75;100.00;100701.94;5112835;28;20115;-51
2023/08/31 03:24:49;;;;;;;0.20;0.20;;;;;;;9.70;100.00;100708.63;5112603;28;20026;-50
2023/08/31 03:27:15;;;;;;;0.17;0.17;;;;;;;9.68;100.00;100711.16;5112865;28;20020;-51
2023/08/31 03:29:41;;;;;;;0.15;0.15;;;;;;;9.64;100.00;100711.88;5113278;28;20494;-50
2023/08/31 03:32:06;;;;;;;0.20;0.20;;;;;;;9.63;100.00;100710.16;5112598;28;20023;-51
2023/08/31 03:34:32;;;;;;;0.20;0.20;;;;;;;9.62;100.00;100708.41;5112972;28;20069;-49
2023/08/31 03:36:58;;;;;;;0.20;0.20;;;;;;;9.58;100.00;100703.09;5112288;28;20027;-49
2023/08/31 03:39:24;;;;;;;0.20;0.20;;;;;;;9.60;100.00;100702.31;5112986;28;20045;-51
2023/08/31 03:41:49;;;;;;;0.20;0.20;;;;;;;9.55;100.00;100699.63;5113132;28;20031;-52
2023/08/31 03:44:15;;;;;;;0.20;0.20;;;;;;;9.55;100.00;100698.72;5112179;28;20413;-52
2023/08/31 03:46:40;;;;;;;0.20;0.20;;;;;;;9.51;100.00;100705.47;5113139;28;20485;-52
2023/08/31 03:49:06;;;;;;;0.20;0.20;;;;;;;9.53;100.00;100700.41;5112998;28;20456;-51
2023/08/31 03:51:31;;;;;;;0.20;0.20;;;;;;;9.52;100.00;100701.22;5111695;28;20028;-51
2023/08/31 03:53:56;;;;;;;0.20;0.20;;;;;;;9.50;100.00;100701.16;5112972;28;20027;-51
2023/08/31 03:56:22;;;;;;;0.20;0.20;;;;;;;9.48;100.00;100702.81;5112779;28;20016;-51
2023/08/31 03:58:47;;;;;;;0.20;0.20;;;;;;;9.46;100.00;100704.44;5112329;28;20485;-51
2023/08/31 04:01:14;;;;;;;0.20;0.20;;;;;;;9.42;100.00;100707.75;5112574;28;20028;-51
2023/08/31 04:03:39;;;;;;;0.20;0.20;;;;;;;9.40;100.00;100699.13;5112779;28;20367;-51
2023/08/31 04:06:05;;;;;;;0.20;0.20;;;;;;;9.42;100.00;100712.91;5112096;28;20474;-52
2023/08/31 04:08:30;;;;;;;0.20;0.20;;;;;;;9.38;100.00;100711.91;5112671;28;20025;-52
2023/08/31 04:10:56;;;;;;;0.20;0.20;;;;;;;9.42;100.00;100712.91;5113004;28;20114;-50
2023/08/31 04:13:21;;;;;;;0.20;0.20;;;;;;;9.37;100.00;100712.78;5111912;28;20091;-51
2023/08/31 04:15:47;;;;;;;0.20;0.20;;;;;;;9.36;100.00;100712.69;5112826;28;20123;-52
2023/08/31 04:18:12;;;;;;;0.20;0.20;;;;;;;9.33;100.00;100720.31;5116457;28;20044;-49
2023/08/31 04:20:37;;;;;;;0.20;0.20;;;;;;;9.38;100.00;100723.91;5115807;28;20434;-51
2023/08/31 04:23:03;;;;;;;0.20;0.20;;;;;;;9.34;100.00;100730.66;5116344;28;20023;-50
2023/08/31 04:25:31;;;;;;;0.20;0.20;;;;;;;9.33;100.00;100720.31;5116162;28;20028;-51
2023/08/31 04:27:56;;;;;;;;;;;;;;;9.41;100.00;100728.28;5116157;28;20529;-52
2023/08/31 04:30:22;;;;;;;0.20;0.20;;;;;;;9.37;100.00;100725.63;5116179;28;19912;-51
2023/08/31 04:32:48;;;;;;;0.20;0.20;;;;;;;9.34;100.00;100724.66;5116229;28;20027;-51
2023/08/31 04:35:13;;;;;;;0.25;0.25;;;;;;;9.37;100.00;100729.88;5115176;28;20378;-51
2023/08/31 04:37:39;;;;;;;0.20;0.20;;;;;;;9.34;100.00;100733.22;5116471;28;20035;-51
2023/08/31 04:40:05;;;;;;;0.20;0.20;;;;;;;9.33;100.00;100734.03;5116060;28;20012;-51
2023/08/31 04:42:30;;;;;;;0.20;0.20;;;;;;;9.35;100.00;100731.53;5114981;27;20030;-51
2023/08/31 04:44:55;;;;;;;0.28;0.28;;;;;;;9.32;100.00;100734.00;5116082;28;20032;-52
2023/08/31 04:47:21;;;;;;;0.20;0.20;;;;;;;9.35;100.00;100741.84;5115007;28;20023;-51
2023/08/31 04:49:46;;;;;;;0.20;0.20;;;;;;;9.34;100.00;100737.50;5115952;28;20475;-50
2023/08/31 04:52:11;;;;;;;0.20;0.20;;;;;;;9.36;100.00;100738.41;5115518;28;20050;-46
2023/08/31 04:54:37;;;;;;;0.20;0.20;;;;;;;9.35;100.00;100736.69;5114817;28;20051;-51
2023/08/31 04:57:03;;;;;;;0.20;0.20;;;;;;;9.35;100.00;100744.41;5115892;28;20035;-47
2023/08/31 04:59:28;;;;;;;0.20;0.20;;;;;;;9.36;100.00;100748.69;5115479;28;20095;-47
2023/08/31 05:01:54;;;;;;;0.20;0.20;;;;;;;9.36;100.00;100740.97;5114930;28;20481;-51
2023/08/31 05:04:19;;;;;;;0.20;0.20;;;;;;;9.37;100.00;100748.78;5115444;28;20475;-48
2023/08/31 05:06:44;;;;;;;0.20;0.20;;;;;;;9.38;100.00;100749.63;5115736;28;20026;-52
2023/08/31 05:09:09;;;;;;;0.20;0.20;;;;;;;9.39;100.00;100756.53;5114754;28;20027;-51
2023/08/31 05:11:35;;;;;;;0.20;0.20;;;;;;;9.44;100.00;100760.13;5115105;28;20102;-52
2023/08/31 05:14:00;;;;;;;0.20;0.20;;;;;;;9.46;100.00;100761.03;5115452;28;20019;-46
2023/08/31 05:16:25;;;;;;;0.20;0.20;;;;;;;9.52;100.00;100761.25;5114367;28;20028;-50
2023/08/31 05:18:51;;;;;;;0.20;0.20;;;;;;;9.53;100.00;100763.00;5115274;28;20103;-46
2023/08/31 05:21:16;;;;;;;0.20;0.20;;;;;;;9.53;100.00;100773.28;5114875;28;20031;-51
2023/08/31 05:23:42;;;;;;;0.20;0.20;;;;;;;9.51;100.00;100774.94;5114701;28;20034;-51
2023/08/31 05:26:07;;;;;;;0.20;0.20;;;;;;;9.53;100.00;100778.44;5115352;28;20432;-46
2023/08/31 05:28:33;;;;;;;0.20;0.20;;;;;;;9.51;100.00;100780.06;5114050;28;20047;-52
2023/08/31 05:31:02;;;;;;;0.20;0.20;;;;;;;9.51;100.00;100792.06;5114423;28;20023;-51
2023/08/31 05:33:29;;;;;;;0.20;0.20;;;;;;;9.55;100.00;100797.38;5114672;28;20035;-49
2023/08/31 05:35:55;;;;;;;0.20;0.20;;;;;;;9.55;100.00;100796.50;5114999;28;20023;-52
2023/08/31 05:38:20;;;;;;;0.20;0.20;;;;;;;9.54;100.00;100800.78;5114041;28;20077;-49
2023/08/31 05:40:46;;;;;;;0.20;0.20;;;;;;;9.58;100.00;100800.88;5114857;28;20035;-51
2023/08/31 05:43:15;;;;;;;0.28;0.28;;;;;;;9.60;100.00;100799.22;5114779;28;20024;-52
2023/08/31 05:45:41;;;;;;;0.20;0.20;;;;;;;9.59;100.00;100805.19;5114057;28;20020;-46
2023/08/31 05:48:07;;;;;;;0.20;0.20;;;;;;;9.60;100.00;100806.94;5114976;28;20020;-50
2023/08/31 05:50:33;;;;;;;0.20;0.20;;;;;;;9.65;100.00;100807.97;5114217;28;20039;-50
2023/08/31 05:52:58;;;;;;;0.20;0.20;;;;;;;9.65;100.00;100805.41;5113987;28;20020;-52
2023/08/31 05:55:23;;;;;;;0.20;0.20;;;;;;;9.68;100.00;100802.91;5114236;28;20039;-52
2023/08/31 05:57:49;;;;;;;0.20;0.20;;;;;;;9.70;100.00;100803.84;5113893;28;20175;-52
2023/08/31 06:00:16;;;;;;;0.20;0.20;;;;;;;9.74;100.00;100805.69;5114038;28;20024;-50
2023/08/31 06:02:43;;;;;;;0.20;0.20;;;;;;;9.80;100.00;100808.47;5114526;28;20532;-51
2023/08/31 06:05:09;;;;;;;0.20;0.20;;;;;;;9.83;100.00;100803.41;5113617;28;20028;-47
2023/08/31 06:07:34;;;;;;;0.20;0.20;;;;;;;9.87;100.00;100807.81;5114567;28;20016;-47
2023/08/31 06:09:59;;;;;;;0.20;0.20;;;;;;;9.95;100.00;100812.34;5114544;28;20020;-48
2023/08/31 06:12:25;;;;;;;0.20;0.20;;;;;;;9.98;100.00;100812.44;5113283;28;20020;-52
2023/08/31 06:14:50;;;;;;;0.17;0.17;;;;;;;10.05;100.00;100819.53;5114299;28;20020;-52
2023/08/31 06:17:15;;;;;;;0.20;0.20;;;;;;;10.12;100.00;100818.91;5113771;28;20491;-50
2023/08/31 06:19:42;;;;;;;0.20;0.20;;;;;;;10.19;100.00;100822.56;5113352;28;20051;-46
2023/08/31 06:22:07;;;;;;;0.20;0.20;;;;;;;10.28;100.00;100825.41;5114170;28;20027;-51
2023/08/31 06:24:33;;;;;;;0.20;0.20;;;;;;;10.33;100.00;100821.25;5113691;28;20024;-47
2023/08/31 06:26:59;;;;;;;0.10;0.10;;;;;;;10.43;100.00;100826.72;5113265;28;20027;-52
2023/08/31 06:29:25;;;;;;;0.20;0.20;;;;;;;10.48;100.00;100823.47;5113765;28;20016;-52
2023/08/31 06:31:50;;;;;;;0.20;0.20;;;;;;;10.56;100.00;100825.38;5113814;28;20026;-51
2023/08/31 06:34:15;;;;;;;0.20;0.20;;;;;;;10.66;100.00;100830.84;5112864;28;20027;-46
2023/08/31 06:36:40;;;;;;;0.20;0.20;;;;;;;10.79;100.00;100833.78;5113991;28;20023;-46
2023/08/31 06:39:07;;;;;;;0.20;0.20;;;;;;;10.87;100.00;100835.75;5114016;28;20023;-52
2023/08/31 06:41:32;;;;;;;0.20;0.20;;;;;;;10.95;100.00;100830.81;5112757;28;20039;-52
2023/08/31 06:43:58;;;;;;;0.20;0.20;;;;;;;11.06;100.00;100833.66;5113892;27;20023;-48
2023/08/31 06:46:23;;;;;;;0.10;0.10;;;;;;;11.15;100.00;100836.50;5113464;28;20038;-52
2023/08/31 06:48:48;;;;;;;0.20;0.20;;;;;;;11.25;100.00;100835.03;5112987;28;20015;-51
2023/08/31 06:51:14;;;;;;;0.20;0.20;;;;;;;11.38;100.00;100843.97;5113482;28;20024;-52
2023/08/31 06:53:41;;;;;;;0.20;0.20;;;;;;;11.50;100.00;100846.00;5113424;28;20099;-48
2023/08/31 06:56:07;;;;;;;0.30;0.30;;;;;;;11.62;100.00;100848.00;5112542;28;20030;-51
2023/08/31 06:58:32;;;;;;;0.10;0.10;;;;;;;11.75;100.00;100850.09;5113234;28;20024;-51
2023/08/31 07:00:57;;;;;;;0.20;0.20;;;;;;;11.83;100.00;100851.13;5112718;28;20106;-51
2023/08/31 07:03:22;;;;;;;0.13;0.13;;;;;;;11.88;100.00;100848.69;5112996;28;20026;-50
2023/08/31 07:05:48;;;;;;;0.20;0.20;;;;;;;11.98;100.00;100857.53;5113539;28;20028;-50
2023/08/31 07:08:13;;;;;;;0.10;0.10;;;;;;;12.07;100.00;100854.31;5112217;28;20055;-48
2023/08/31 07:10:38;;;;;;;0.20;0.20;;;;;;;12.19;100.00;100858.03;5113138;28;20031;-50
2023/08/31 07:13:04;;;;;;;0.10;0.10;;;;;;;12.27;100.00;100859.94;5113465;28;20027;-50
2023/08/31 07:15:30;;;;;;;0.20;0.20;;;;;;;12.40;100.00;100872.28;5112225;28;20091;-51
2023/08/31 07:17:56;;;;;;;0.20;0.20;;;;;;;12.56;100.00;100867.47;5113186;28;20065;-52
2023/08/31 07:20:21;;;;;;;0.17;0.17;;;;;;;12.63;100.00;100864.19;5112810;28;20065;-51
2023/08/31 07:22:46;;;;;;;0.10;0.10;;;;;;;12.71;100.00;100866.94;5112421;28;20383;-52
2023/08/31 07:25:12;;;;;;;0.15;0.15;;;;;;;12.79;100.00;100867.94;5112832;28;20081;-51
2023/08/31 07:27:37;;;;;;;0.20;0.20;;;;;;;12.93;100.00;100869.09;5113165;28;20058;-51
2023/08/31 07:30:05;;;;;;;0.35;0.20;;;;;;;13.00;100.00;100872.69;5112430;28;20023;-52
2023/08/31 07:32:31;;;;;;;0.20;0.20;;;;;;;13.16;100.00;100872.16;5112646;28;20036;-52
2023/08/31 07:34:56;;;;;;;0.10;0.10;;;;;;;13.32;100.00;100867.25;5113368;28;20043;-48
2023/08/31 07:37:21;;;;;;;0.10;0.10;;;;;;;13.40;100.00;100867.44;5112324;28;20026;-52
2023/08/31 07:39:47;;;;;;;0.10;0.10;;;;;;;13.48;100.00;100871.06;5113113;28;20031;-51
2023/08/31 07:42:12;;;;;;;0.17;0.17;;;;;;;13.48;100.00;100874.50;5112682;28;20024;-49
2023/08/31 07:44:37;;;;;;;0.10;0.10;;;;;;;13.57;100.00;100875.50;5112298;28;20089;-50
2023/08/31 07:47:03;;;;;;;0.10;0.10;;;;;;;13.74;100.00;100874.09;5112894;28;20015;-52
2023/08/31 07:49:28;;;;;;;0.10;0.10;;;;;;;13.87;100.00;100879.50;5112893;28;20026;-52
2023/08/31 07:51:53;;;;;;;0.10;0.10;;;;;;;13.94;100.00;100877.03;5114250;28;20024;-48
2023/08/31 07:54:22;;;;;;;0.10;0.10;;;;;;;14.06;100.00;100878.94;5116624;28;20097;-50
2023/08/31 07:56:48;;;;;;;0.10;0.10;;;;;;;14.11;100.00;100879.88;5117117;28;20032;-52
2023/08/31 07:59:13;;;;;;;0.10;0.10;;;;;;;14.28;100.00;100874.94;5116102;28;20028;-50
2023/08/31 08:01:40;;;;;;;0.10;0.10;;;;;;;14.37;100.00;100878.50;5116756;28;20031;-51
2023/08/31 08:04:06;;;;;;;0.10;0.10;;;;;;;14.45;100.00;100880.38;5117197;28;20043;-48
2023/08/31 08:06:31;;;;;;;0.10;0.10;;;;;;;14.60;100.00;100884.03;5115753;28;20378;-51
2023/08/31 08:08:56;;;;;;;0.10;0.10;;;;;;;14.74;100.00;100895.47;5116955;28;20061;-47
2023/08/31 08:11:22;;;;;;;0.10;0.10;;;;;;;14.96;100.00;100882.78;5115785;28;20016;-47
2023/08/31 08:13:47;;;;;;;0.10;0.10;;;;;;;14.97;100.00;100887.97;5116727;28;20399;-52
2023/08/31 08:16:14;;;;;;;0.10;0.10;;;;;;;15.08;100.00;100895.03;5116229;28;20016;-52
2023/08/31 08:18:40;;;;;;;0.10;0.10;;;;;;;15.23;100.00;100891.75;5116065;28;20103;-52
2023/08/31 08:21:05;;;;;;;0.10;0.10;;;;;;;15.29;100.00;100892.69;5116782;28;20123;-52
2023/08/31 08:23:30;;;;;;;0.10;0.10;;;;;;;15.37;100.00;100895.34;5116240;28;20015;-52
2023/08/31 08:25:56;;;;;;;0.10;0.10;;;;;;;15.55;100.00;100904.22;5115659;28;20024;-52
2023/08/31 08:28:21;;;;;;;0.00;0.00;;;;;;;15.59;100.00;100911.16;5116241;28;20020;-47
2023/08/31 08:30:46;;;;;;;0.10;0.10;;;;;;;15.67;100.00;100903.47;5116379;28;20023;-51
2023/08/31 08:33:12;;;;;;;0.10;0.10;;;;;;;15.80;100.00;100903.59;5115481;28;20016;-49
2023/08/31 08:35:38;;;;;;;0.10;0.10;;;;;;;15.97;100.00;100900.28;5116288;28;20030;-51
2023/08/31 08:38:03;;;;;;;0.10;0.10;;;;;;;16.01;100.00;100896.88;5116301;28;20046;-48
2023/08/31 08:40:31;;;;;;;0.10;0.10;;;;;;;16.11;100.00;100906.47;5115060;28;20023;-51
2023/08/31 08:43:00;;;;;;;0.10;0.10;;;;;;;16.20;100.00;100904.78;5116199;28;20034;-52
2023/08/31 08:45:30;;;;;;;0.10;0.10;;;;;;;16.30;100.00;100919.59;5115816;28;20031;-52
2023/08/31 08:47:57;;;;;;;0.10;0.10;;;;;;;16.50;100.00;100916.25;5115525;28;20034;-51
2023/08/31 08:50:23;;;;;;;0.10;0.10;;;;;;;16.63;100.00;100915.50;5116017;28;20038;-48
2023/08/31 08:52:50;;;;;;;0.10;0.10;;;;;;;16.65;100.00;100918.94;5116201;28;20019;-48
2023/08/31 08:55:16;;;;;;;0.10;0.10;;;;;;;16.86;100.00;100919.94;5114592;28;20447;-52
2023/08/31 08:57:41;;;;;;;0.10;0.10;;;;;;;16.93;100.00;100914.78;5115959;28;20102;-47
2023/08/31 09:00:07;;;;;;;0.10;0.10;;;;;;;16.99;100.00;100921.78;5115734;28;20459;-52
2023/08/31 09:02:32;;;;;;;0.10;0.10;;;;;;;17.11;100.00;100913.13;5113885;28;20036;-47
2023/08/31 09:04:58;;;;;;;0.10;0.10;;;;;;;17.24;100.00;100921.84;5115728;28;20115;-52
2023/08/31 09:07:24;;;;;;;0.10;0.10;;;;;;;17.30;100.00;100911.47;5115538;27;20371;-52
2023/08/31 09:09:51;;;;;;;0.10;0.10;;;;;;;17.32;100.00;100909.72;5115005;28;20467;-52
2023/08/31 09:12:17;;;;;;;0.10;0.10;;;;;;;17.52;100.00;100912.38;5115347;28;20023;-51
2023/08/31 09:14:43;;;;;;;0.10;0.10;;;;;;;17.58;100.00;100916.72;5114789;28;20121;-48
2023/08/31 09:17:08;;;;;;;0.10;0.10;;;;;;;17.75;100.00;100912.41;5115689;28;20028;-52
2023/08/31 09:19:33;;;;;;;0.10;0.10;;;;;;;18.23;100.00;100922.00;5115117;28;20103;-52
2023/08/31 09:21:59;;;;;;;0.10;0.10;;;;;;;17.84;96.22;100921.09;5114614;27;20531;-52
2023/08/31 09:24:24;;;;;;;0.10;0.10;;;;;;;18.13;100.00;100922.88;5114991;28;20016;-51
2023/08/31 09:26:53;;;;;;;0.10;0.10;;;;;;;18.31;98.56;100933.31;5115236;28;20046;-52
2023/08/31 09:29:19;;;;;;;0.03;0.03;;;;;;;18.16;97.82;100925.50;5114461;28;20030;-55
2023/08/31 09:31:46;;;;;;;0.10;0.10;;;;;;;18.32;96.09;100937.66;5115180;28;20057;-52
2023/08/31 09:34:12;;;;;;;0.10;0.10;;;;;;;18.39;90.12;100923.72;5114965;28;20039;-48
2023/08/31 09:36:38;;;;;;;0.10;0.10;;;;;;;18.45;91.57;100929.78;5114424;28;20032;-47
2023/08/31 09:39:04;;;;;;;0.10;0.10;;;;;;;18.50;91.52;100930.66;5115059;28;20027;-52
2023/08/31 09:41:30;;;;;;;0.10;0.10;;;;;;;18.73;91.56;100934.09;5114623;28;20034;-51
2023/08/31 09:43:55;;;;;;;0.10;0.10;;;;;;;18.61;89.72;100934.13;5114394;28;20106;-48
2023/08/31 09:46:21;;;;;;;0.10;0.10;;;;;;;18.62;84.97;100938.47;5114710;28;20023;-52
2023/08/31 09:48:48;;;;;;;0.00;0.00;;;;;;;18.83;84.86;100931.47;5115071;28;20100;-52
2023/08/31 09:51:16;;;;;;;0.10;0.10;;;;;;;19.05;84.13;100935.75;5113868;28;20451;-52
2023/08/31 09:53:42;;;;;;;0.00;0.00;;;;;;;19.42;82.27;100934.72;5114834;28;20031;-52
2023/08/31 09:56:18;;;;;;;0.03;0.03;;;;;;;19.89;83.79;100935.28;5114688;28;20024;-51
2023/08/31 09:58:43;;;;;;;0.00;0.00;;;;;;;20.05;79.72;100931.69;5114210;28;20019;-47
2023/08/31 10:01:09;;;;;;;0.00;0.00;;;;;;;20.35;80.71;100939.28;5114782;28;20496;-51
2023/08/31 10:03:34;;;;;;;0.00;0.00;;;;;;;20.43;78.85;100939.22;5114461;28;20100;-51
2023/08/31 10:06:00;;;;;;;0.05;0.05;;;;;;;20.91;77.48;100936.94;5113825;28;20035;-52
2023/08/31 10:08:31;;;;;;;0.00;0.00;;;;;;;21.58;70.88;100936.97;5113630;28;20052;-49
2023/08/31 10:10:59;;;;;;;0.00;0.00;;;;;;;21.31;67.16;100946.94;5113571;28;20052;-48
2023/08/31 10:13:24;;;;;;;0.00;0.00;;;;;;;21.77;62.06;100936.69;5114256;28;20031;-51
2023/08/31 10:15:50;;;;;;;0.00;0.00;;;;;;;20.99;61.72;100939.47;5114251;28;20024;-52
2023/08/31 10:18:16;;;;;;;0.00;0.00;;;;;;;20.60;61.29;100946.88;5113280;28;20500;-51
2023/08/31 10:20:43;;;;;;;0.00;0.00;;;;;;;19.86;66.70;100946.66;5114171;28;20122;-52
2023/08/31 10:23:08;;;;;;;0.00;0.00;;;;;;;19.86;69.17;100940.56;5114150;27;20394;-49
2023/08/31 10:25:45;;;;;;;0.00;0.00;;;;;;;20.44;68.34;100938.31;5113118;28;20028;-52
2023/08/31 10:28:18;;;;;;;;;;;;;;;20.95;67.71;100938.66;5114440;28;20112;-52
2023/08/31 10:31:06;;;;;;;0.00;0.00;;;;;;;21.49;62.65;100937.09;5114218;28;19998;-50
2023/08/31 10:33:44;;;;;;;0.00;0.00;;;;;;;21.81;60.90;100936.63;5113035;28;20023;-52
2023/08/31 10:36:18;;;;;;;0.00;0.00;;;;;;;22.43;58.01;100937.38;5114040;28;20462;-48
2023/08/31 10:38:59;;;;;;;0.00;0.00;;;;;;;22.34;59.07;100935.75;5113910;28;20416;-52
2023/08/31 10:41:33;;;;;;;0.00;0.00;;;;;;;22.47;54.75;100936.44;5113592;28;20027;-52
2023/08/31 10:43:58;;;;;;;0.00;0.00;;;;;;;22.35;52.09;100930.47;5113834;28;20106;-51
2023/08/31 10:46:32;;;;;;;0.00;0.00;;;;;;;22.29;54.08;100925.31;5112967;28;20477;-53
2023/08/31 10:49:14;;;;;;;0.00;0.00;;;;;;;22.16;55.62;100923.81;5113807;28;20053;-53
2023/08/31 10:51:41;;;;;;;0.00;0.00;;;;;;;22.51;55.19;100920.56;5113939;28;20028;-52
2023/08/31 10:54:09;;;;;;;;;;;;;;;22.98;54.00;100920.53;5113123;28;20044;-52
2023/08/31 10:57:07;;;;;;;0.00;0.00;;;;;;;22.95;51.34;100919.72;5113444;28;19912;-47
2023/08/31 10:59:55;;;;;;;0.00;0.00;;;;;;;23.06;47.66;100922.13;5106201;28;20062;-52
2023/08/31 11:02:43;;;;;;;0.00;0.00;;;;;;;23.28;48.62;100922.53;5112497;28;20027;-53
2023/08/31 11:05:08;;;;;;;0.00;0.00;;;;;;;22.90;47.80;100919.81;5113809;28;20054;-52
2023/08/31 11:07:35;;;;;;;0.00;0.00;;;;;;;23.37;47.77;100922.38;5112597;28;20062;-53
2023/08/31 11:10:08;;;;;;;0.00;0.00;;;;;;;23.19;49.70;100923.63;5113704;28;20028;-47
2023/08/31 11:12:33;;;;;;;0.00;0.00;;;;;;;23.47;51.06;100923.00;5113138;28;20114;-52
2023/08/31 11:14:58;;;;;;;0.00;0.00;;;;;;;23.94;47.01;100922.81;5112569;28;20119;-53
2023/08/31 11:17:24;;;;;;;0.00;0.00;;;;;;;24.49;43.84;100916.09;5113242;28;20046;-55
2023/08/31 11:19:49;;;;;;;0.00;0.00;;;;;;;23.56;44.68;100922.78;5113569;28;20459;-52